Terminal Aerodrome Forecast
Issued by NWS Wilmington, OH

Current Version | Previous Version | Text Only | Print | Product List | Glossary Off
Versions: 1 2 3 4 5 6 7 8 9 10 11 12 13 14 15 16 17 18 19 20 21

000
FTUS41 KILN 051133
TAFCMH
TAF
KCMH 051133Z 0512/0612 28012KT P6SM OVC012
     FM051400 29005KT P6SM BKN015
     FM052000 VRB03KT P6SM SCT015 BKN250
     FM060000 12004KT P6SM BKN250
     FM060600 10008KT P6SM BKN080=

USA.gov is the U.S. government's official web portal to all federal, state and local government web resources and services.